»·PEaware :: SWA449 KLGB-KLAS

SWA449 :: KLGB-KLAS

FLIGHT INFORMATION

Flight Status: Arrived
Operator:
Southwest Airlines
More flights by this operator :: More flights under this callsign
Pilot: Joshua T. (23864)
Aircraft: BOEING 737-600
(B736)
More flights by this aircraft type
Origin: KLGB Long Beach
United States
Destination: KLAS Harry Reid Intl
United States
More flights between these airports :: More routes between these airports
Route: ZOOMM3 MISEN RNDRZ2
File this flight plan on PilotEdge
Remarks:
Altitude:
(Current/Filed)
29,000ft
Speed:
(Current/Filed)
460kts
Departed: 19-Nov-23 02:50 PM
Arrived: 19-Nov-23 03:39 PM
Distance/Time
Traveled:
201nm/0:49
Distance/Time
To Go:
Arrived

Flight Plot

Page will automatically refresh every two minutes.

Flight plan parsing failed; only flown route is shown


Map Options




Map Legend


Flown Route
Filed Route
Departure Airport
Arrival Airport
Navaid (VOR, NDB)
Fix

Horizontal Profiles

Position Reports

Time Latitude Longitude Heading Altitude Ground
Speed
19-Nov-23 14:27 33.818992 -118.145961 90 51ft 0kts
19-Nov-23 14:28 33.818992 -118.145961 90 51ft 0kts
19-Nov-23 14:29 33.818992 -118.145961 90 51ft 0kts
19-Nov-23 14:30 33.818992 -118.145961 90 51ft 0kts
19-Nov-23 14:31 33.818992 -118.145961 90 51ft 0kts
19-Nov-23 14:32 33.818992 -118.145961 90 51ft 0kts
19-Nov-23 14:33 33.818992 -118.145961 90 51ft 0kts
19-Nov-23 14:34 33.818992 -118.145961 90 51ft 0kts
19-Nov-23 14:35 33.818992 -118.145961 90 51ft 0kts
19-Nov-23 14:36 33.818992 -118.145961 90 51ft 0kts
19-Nov-23 14:37 33.818992 -118.145961 90 51ft 0kts
19-Nov-23 14:38 33.818992 -118.145961 90 51ft 0kts
19-Nov-23 14:39 33.819001 -118.146658 91 52ft 2kts
19-Nov-23 14:40 33.819011 -118.147090 94 51ft 0kts
19-Nov-23 14:41 33.819011 -118.147090 94 51ft 0kts
19-Nov-23 14:42 33.819011 -118.147090 94 51ft 0kts
19-Nov-23 14:43 33.818845 -118.147003 176 48ft 0kts
19-Nov-23 14:44 33.818845 -118.147003 176 48ft 0kts
19-Nov-23 14:45 33.816645 -118.148025 164 52ft 16kts
19-Nov-23 14:46 33.812301 -118.142837 134 42ft 26kts
19-Nov-23 14:47 33.807718 -118.137555 178 35ft 0kts
19-Nov-23 14:48 33.807094 -118.138149 252 33ft 11kts
19-Nov-23 14:49 33.825576 -118.160812 310 706ft 187kts
19-Nov-23 14:50 33.839576 -118.222667 230 2676ft 252kts
19-Nov-23 14:51 33.774202 -118.249051 190 5533ft 267kts
19-Nov-23 14:52 33.701011 -118.262820 192 6949ft 286kts
19-Nov-23 14:53 33.623697 -118.279535 192 6964ft 278kts
19-Nov-23 14:54 33.556470 -118.251784 119 7891ft 285kts
19-Nov-23 14:55 33.573428 -118.167610 31 9754ft 292kts
19-Nov-23 14:56 33.645614 -118.118395 24 11552ft 303kts
19-Nov-23 14:57 33.721432 -118.071148 21 13384ft 310kts
19-Nov-23 14:58 33.799717 -118.021158 23 14977ft 327kts
19-Nov-23 14:59 33.880210 -117.968143 24 17289ft 336kts
19-Nov-23 15:00 33.958957 -117.899536 32 19331ft 354kts
19-Nov-23 15:01 34.036848 -117.825326 32 22022ft 364kts
19-Nov-23 15:02 34.111080 -117.740505 44 24346ft 386kts
19-Nov-23 15:03 34.179792 -117.640382 44 26280ft 405kts
19-Nov-23 15:04 34.251496 -117.535454 43 28778ft 405kts
19-Nov-23 15:05 34.326742 -117.425017 44 29102ft 449kts
19-Nov-23 15:06 34.408806 -117.301896 45 29103ft 487kts
19-Nov-23 15:07 34.495877 -117.170858 45 29068ft 506kts
19-Nov-23 15:08 34.584577 -117.038677 44 29064ft 501kts
19-Nov-23 15:09 34.673510 -116.909722 44 29074ft 500kts
19-Nov-23 15:10 34.762030 -116.780104 44 29081ft 493kts
19-Nov-23 15:11 34.850171 -116.651251 42 29068ft 494kts
19-Nov-23 15:12 34.952496 -116.548919 31 27515ft 465kts
19-Nov-23 15:13 35.056201 -116.448865 33 25067ft 477kts
19-Nov-23 15:14 35.153057 -116.341084 43 24058ft 474kts
19-Nov-23 15:15 35.241039 -116.223994 42 22550ft 456kts
19-Nov-23 15:16 35.325105 -116.108193 43 20930ft 451kts
19-Nov-23 15:17 35.407361 -115.995146 43 19395ft 436kts
19-Nov-23 15:18 35.486551 -115.885946 43 17859ft 423kts
19-Nov-23 15:19 35.561004 -115.782843 42 16684ft 375kts
19-Nov-23 15:20 35.625375 -115.694659 40 16062ft 327kts
19-Nov-23 15:21 35.685988 -115.613079 40 15290ft 320kts
19-Nov-23 15:22 35.749066 -115.539765 22 14529ft 301kts
19-Nov-23 15:23 35.821879 -115.490069 22 13793ft 299kts
19-Nov-23 15:24 35.893889 -115.439673 23 12938ft 296kts
19-Nov-23 15:25 35.965381 -115.389718 23 12134ft 294kts
19-Nov-23 15:26 36.014763 -115.314736 87 11323ft 320kts
19-Nov-23 15:27 36.007940 -115.204489 92 10211ft 318kts
19-Nov-23 15:28 36.002291 -115.098985 90 9097ft 288kts
19-Nov-23 15:29 35.998771 -115.005554 85 8014ft 259kts
19-Nov-23 15:30 35.998306 -114.919457 80 6768ft 242kts
19-Nov-23 15:31 36.035795 -114.882653 337 6024ft 166kts
19-Nov-23 15:32 36.067249 -114.917743 315 5043ft 144kts
19-Nov-23 15:33 36.071510 -114.966400 275 4001ft 133kts
19-Nov-23 15:34 36.072729 -115.010563 283 3692ft 130kts
19-Nov-23 15:35 36.073474 -115.056982 278 3234ft 144kts
19-Nov-23 15:36 36.073574 -115.105694 277 2427ft 126kts
19-Nov-23 15:37 36.073646 -115.140990 270 2103ft 48kts
19-Nov-23 15:38 36.074821 -115.146127 305 2124ft 0kts
19-Nov-23 15:39 36.075507 -115.146546 357 2130ft 13kts
19-Nov-23 15:40 36.079581 -115.146685 28 2125ft 0kts
19-Nov-23 15:41 36.079581 -115.146685 28 2125ft 0kts
19-Nov-23 15:42 36.079581 -115.146685 28 2125ft 0kts

Navigation Log

Ident Type
Flight plan parsing failed, navigation log unavailable